Time;durP1;ratioP1;P1;durP2;ratioP2;P2;SDS_P1;SDS_P2;PMS_P1;PMS_P2;Temp;Humidity;BMP_temperature;BMP_pressure;BME280_temperature;BME280_humidity;BME280_pressure;Samples;Min_cycle;Max_cycle;Signal;HPM_P1;HPM_P2
2022/05/14 00:00:26;;;;;;;0.00;0.00;;;13.40;99.90;;;;;;5046162;28;20231;-68
2022/05/14 00:02:55;;;;;;;0.00;0.00;;;13.40;99.90;;;;;;5038788;28;20287;-68
2022/05/14 00:05:24;;;;;;;0.00;0.00;;;13.40;99.90;;;;;;5031625;28;20682;-67
2022/05/14 00:07:52;;;;;;;0.00;0.00;;;13.30;99.90;;;;;;5030860;28;20207;-68
2022/05/14 00:10:21;;;;;;;0.00;0.00;;;13.30;99.90;;;;;;5035871;28;20228;-68
2022/05/14 00:13:05;;;;;;;0.00;0.00;;;13.30;99.90;;;;;;5032684;28;20273;-68
2022/05/14 00:15:34;;;;;;;0.10;0.10;;;13.30;99.90;;;;;;5050217;28;20218;-68
2022/05/14 00:18:03;;;;;;;0.00;0.00;;;;;;;;;;5041020;28;20208;-68
2022/05/14 00:20:31;;;;;;;0.00;0.00;;;;;;;;;;5033184;28;20485;-67
2022/05/14 00:22:59;;;;;;;0.00;0.00;;;;;;;;;;5065395;28;20204;-68
2022/05/14 00:25:27;;;;;;;0.03;0.03;;;13.20;99.90;;;;;;5066454;28;20220;-68
2022/05/14 00:27:54;;;;;;;0.00;0.00;;;13.10;99.90;;;;;;5033797;28;20200;-68
2022/05/14 00:30:24;;;;;;;0.00;0.00;;;13.20;99.90;;;;;;5041581;28;20247;-68
2022/05/14 00:32:52;;;;;;;0.00;0.00;;;13.20;99.90;;;;;;5033275;28;20681;-68
2022/05/14 00:35:21;;;;;;;0.00;0.00;;;13.20;99.90;;;;;;5041135;28;20222;-68
2022/05/14 00:37:49;;;;;;;0.00;0.00;;;13.20;99.90;;;;;;5032741;28;20207;-68
2022/05/14 00:40:19;;;;;;;0.00;0.00;;;13.20;99.90;;;;;;5034084;28;20296;-68
2022/05/14 00:42:46;;;;;;;0.00;0.00;;;13.20;99.90;;;;;;5026970;28;20204;-68
2022/05/14 00:45:16;;;;;;;0.00;0.00;;;13.30;99.90;;;;;;5050130;28;20231;-68
2022/05/14 00:47:46;;;;;;;0.10;0.10;;;13.20;99.90;;;;;;5042206;28;20273;-68
2022/05/14 00:50:23;;;;;;;0.03;0.03;;;13.20;99.90;;;;;;5034822;28;20304;-67
2022/05/14 00:52:51;;;;;;;0.00;0.00;;;13.20;99.90;;;;;;5047168;28;20208;-68
2022/05/14 00:55:19;;;;;;;0.00;0.00;;;13.20;99.90;;;;;;5033564;28;20203;-68
2022/05/14 00:57:47;;;;;;;0.00;0.00;;;13.20;99.90;;;;;;5032500;28;20257;-68
2022/05/14 01:00:19;;;;;;;0.00;0.00;;;13.10;99.90;;;;;;5035098;28;20231;-67
2022/05/14 01:02:46;;;;;;;0.00;0.00;;;13.10;99.90;;;;;;5034144;28;20200;-68
2022/05/14 01:05:13;;;;;;;0.00;0.00;;;13.10;99.90;;;;;;5040587;28;20611;-68
2022/05/14 01:07:42;;;;;;;0.00;0.00;;;13.10;99.90;;;;;;5041575;28;20716;-68
2022/05/14 01:10:12;;;;;;;0.00;0.00;;;13.10;99.90;;;;;;5051323;28;20322;-68
2022/05/14 01:12:44;;;;;;;0.00;0.00;;;13.10;99.90;;;;;;5030605;28;20196;-68
2022/05/14 01:15:15;;;;;;;0.00;0.00;;;13.10;99.90;;;;;;5033411;28;20236;-68
2022/05/14 01:17:43;;;;;;;0.00;0.00;;;13.10;99.90;;;;;;5032452;28;20218;-68
2022/05/14 01:20:11;;;;;;;0.00;0.00;;;13.10;99.90;;;;;;5034929;28;20223;-68
2022/05/14 01:22:53;;;;;;;0.00;0.00;;;13.10;99.90;;;;;;5034613;28;20199;-68
2022/05/14 01:28:18;;;;;;;0.00;0.00;;;13.10;99.90;;;;;;5034304;28;20211;-67
2022/05/14 01:30:50;;;;;;;0.00;0.00;;;13.10;99.90;;;;;;5068717;28;20199;-68
2022/05/14 01:33:18;;;;;;;0.00;0.00;;;13.10;99.90;;;;;;5049697;28;20349;-68
2022/05/14 01:35:47;;;;;;;0.00;0.00;;;13.10;99.90;;;;;;5032387;28;20647;-68
2022/05/14 01:38:18;;;;;;;0.00;0.00;;;13.10;99.90;;;;;;5067618;28;20206;-68
2022/05/14 01:40:46;;;;;;;0.00;0.00;;;13.10;99.90;;;;;;5033245;28;20218;-68
2022/05/14 01:43:13;;;;;;;0.00;0.00;;;13.10;99.90;;;;;;5033052;28;20245;-68
2022/05/14 01:45:42;;;;;;;0.00;0.00;;;13.10;99.90;;;;;;5029996;28;20276;-68
2022/05/14 01:48:10;;;;;;;0.00;0.00;;;13.10;99.90;;;;;;5026442;28;20220;-68
2022/05/14 01:50:38;;;;;;;0.10;0.10;;;13.00;99.90;;;;;;5032108;28;20215;-68
2022/05/14 01:53:05;;;;;;;0.00;0.00;;;13.00;99.90;;;;;;5034098;28;20204;-67
2022/05/14 01:55:32;;;;;;;0.00;0.00;;;13.00;99.90;;;;;;5034203;28;20668;-68
2022/05/14 01:57:59;;;;;;;0.00;0.00;;;13.00;99.90;;;;;;5031238;28;20214;-68
2022/05/14 02:00:34;;;;;;;0.00;0.00;;;13.00;99.90;;;;;;5031040;28;20218;-68
2022/05/14 02:03:03;;;;;;;0.00;0.00;;;13.00;99.90;;;;;;5032681;28;20661;-68
2022/05/14 02:05:30;;;;;;;0.10;0.10;;;13.00;99.90;;;;;;5030139;28;20216;-68
2022/05/14 02:07:59;;;;;;;0.00;0.00;;;13.10;99.90;;;;;;5042234;28;20206;-68
2022/05/14 02:10:26;;;;;;;0.00;0.00;;;13.10;99.90;;;;;;5034991;28;20220;-68
2022/05/14 02:12:53;;;;;;;0.00;0.00;;;13.10;99.90;;;;;;5027372;28;20225;-68
2022/05/14 02:15:21;;;;;;;0.00;0.00;;;13.10;99.90;;;;;;5031935;28;20281;-68
2022/05/14 02:17:48;;;;;;;0.00;0.00;;;13.10;99.90;;;;;;5045563;28;20199;-69
2022/05/14 02:20:17;;;;;;;0.00;0.00;;;13.10;99.90;;;;;;5029928;28;20224;-68
2022/05/14 02:22:44;;;;;;;0.00;0.00;;;13.10;99.90;;;;;;5031980;28;20287;-69
2022/05/14 02:25:11;;;;;;;0.00;0.00;;;13.10;99.90;;;;;;5028513;28;20358;-69
2022/05/14 02:27:38;;;;;;;0.00;0.00;;;13.10;99.90;;;;;;5039251;28;20317;-68
2022/05/14 02:30:08;;;;;;;0.00;0.00;;;13.10;99.90;;;;;;5047014;28;20231;-68
2022/05/14 02:32:34;;;;;;;0.00;0.00;;;13.10;99.90;;;;;;5047734;28;20203;-68
2022/05/14 02:35:02;;;;;;;0.07;0.07;;;13.10;99.90;;;;;;5034390;28;20222;-68
2022/05/14 02:37:30;;;;;;;0.00;0.00;;;13.10;99.90;;;;;;5038274;28;20285;-68
2022/05/14 02:39:58;;;;;;;0.03;0.03;;;13.10;99.90;;;;;;5071047;28;20218;-68
2022/05/14 02:42:26;;;;;;;0.00;0.00;;;13.10;99.90;;;;;;5071291;28;20198;-68
2022/05/14 02:44:53;;;;;;;0.00;0.00;;;13.10;99.90;;;;;;5037724;28;20219;-68
2022/05/14 02:47:20;;;;;;;0.00;0.00;;;13.10;99.90;;;;;;5031720;28;20294;-68
2022/05/14 02:49:48;;;;;;;0.00;0.00;;;13.00;99.90;;;;;;5034826;28;20887;-68
2022/05/14 02:52:16;;;;;;;0.00;0.00;;;13.00;99.90;;;;;;5048311;28;20204;-68
2022/05/14 02:54:44;;;;;;;0.00;0.00;;;13.00;99.90;;;;;;5048944;28;20187;-68
2022/05/14 02:57:12;;;;;;;0.00;0.00;;;13.00;99.90;;;;;;5069607;28;20203;-68
2022/05/14 02:59:38;;;;;;;0.00;0.00;;;13.00;99.90;;;;;;5037708;28;20230;-68
2022/05/14 03:02:06;;;;;;;0.00;0.00;;;13.00;99.90;;;;;;5034368;28;20295;-68
2022/05/14 03:04:36;;;;;;;0.00;0.00;;;;;;;;;;5047875;28;20199;-68
2022/05/14 03:07:06;;;;;;;0.00;0.00;;;13.00;99.90;;;;;;5065236;28;20231;-68
2022/05/14 03:09:34;;;;;;;0.00;0.00;;;13.00;99.90;;;;;;5042272;28;20244;-68
2022/05/14 03:12:02;;;;;;;0.07;0.07;;;13.00;99.90;;;;;;5050774;28;20304;-68
2022/05/14 03:14:30;;;;;;;0.00;0.00;;;13.00;99.90;;;;;;5029370;28;20192;-67
2022/05/14 03:16:57;;;;;;;0.00;0.00;;;;;;;;;;5037248;28;20202;-67
2022/05/14 03:19:25;;;;;;;0.00;0.00;;;;;;;;;;5035847;28;20219;-67
2022/05/14 03:21:54;;;;;;;0.00;0.00;;;;;;;;;;5032582;28;20200;-66
2022/05/14 03:24:21;;;;;;;0.00;0.00;;;;;;;;;;5036812;28;20188;-66
2022/05/14 03:26:49;;;;;;;0.10;0.10;;;;;;;;;;5064629;28;20253;-67
2022/05/14 03:29:18;;;;;;;0.00;0.00;;;;;;;;;;5041983;28;20321;-66
2022/05/14 03:31:45;;;;;;;0.00;0.00;;;;;;;;;;5033824;28;20200;-66
2022/05/14 03:34:13;;;;;;;0.10;0.10;;;;;;;;;;5033152;28;20301;-67
2022/05/14 03:36:41;;;;;;;0.10;0.10;;;;;;;;;;5042794;28;20664;-66
2022/05/14 03:39:10;;;;;;;0.00;0.00;;;;;;;;;;5066942;28;20300;-67
2022/05/14 03:41:37;;;;;;;0.10;0.10;;;;;;;;;;5033181;28;20223;-67
2022/05/14 03:44:05;;;;;;;0.00;0.00;;;;;;;;;;5032677;28;20281;-67
2022/05/14 03:46:34;;;;;;;0.10;0.10;;;;;;;;;;5042025;28;20231;-67
2022/05/14 03:49:01;;;;;;;0.07;0.07;;;;;;;;;;5032784;28;20326;-68
2022/05/14 03:51:29;;;;;;;0.00;0.00;;;;;;;;;;5040114;28;20196;-67
2022/05/14 03:53:57;;;;;;;0.10;0.10;;;;;;;;;;5036833;28;20203;-68
2022/05/14 03:56:24;;;;;;;0.10;0.10;;;;;;;;;;5033605;28;20200;-67
2022/05/14 03:58:52;;;;;;;0.10;0.10;;;;;;;;;;5031209;28;20226;-68
2022/05/14 04:01:19;;;;;;;0.07;0.07;;;;;;;;;;5063060;28;20207;-67
2022/05/14 04:03:48;;;;;;;0.10;0.10;;;;;;;;;;5066331;28;20203;-67
2022/05/14 04:06:16;;;;;;;0.00;0.00;;;;;;;;;;5032440;28;20219;-67
2022/05/14 04:08:44;;;;;;;0.00;0.00;;;;;;;;;;5032896;28;20277;-67
2022/05/14 04:11:11;;;;;;;0.10;0.10;;;;;;;;;;5029889;28;20624;-67
2022/05/14 04:13:38;;;;;;;0.10;0.10;;;;;;;;;;5035957;28;20841;-67
2022/05/14 04:16:07;;;;;;;0.00;0.00;;;;;;;;;;5029222;28;20257;-67
2022/05/14 04:18:35;;;;;;;0.00;0.00;;;;;;;;;;5068661;28;20293;-67
2022/05/14 04:21:05;;;;;;;0.10;0.10;;;;;;;;;;5032284;28;20302;-68
2022/05/14 04:23:33;;;;;;;0.07;0.07;;;;;;;;;;5039773;28;20199;-67
2022/05/14 04:26:01;;;;;;;0.00;0.00;;;;;;;;;;5062993;28;20230;-68
2022/05/14 04:28:30;;;;;;;0.00;0.00;;;;;;;;;;5029570;28;20305;-68
2022/05/14 04:30:57;;;;;;;0.00;0.00;;;;;;;;;;5031559;28;20256;-68
2022/05/14 04:33:25;;;;;;;0.10;0.10;;;;;;;;;;5063018;28;20219;-67
2022/05/14 04:35:53;;;;;;;0.10;0.10;;;;;;;;;;5063414;28;20204;-68
2022/05/14 04:38:22;;;;;;;0.00;0.00;;;;;;;;;;5065360;28;20211;-68
2022/05/14 04:40:49;;;;;;;0.00;0.00;;;;;;;;;;5028545;28;20281;-68
2022/05/14 04:43:17;;;;;;;0.00;0.00;;;;;;;;;;5062193;28;20204;-68
2022/05/14 04:45:45;;;;;;;0.00;0.00;;;;;;;;;;5069002;28;20215;-68
2022/05/14 04:48:14;;;;;;;0.00;0.00;;;;;;;;;;5031273;28;20273;-68
2022/05/14 04:50:41;;;;;;;0.00;0.00;;;;;;;;;;5039977;28;20223;-68
2022/05/14 04:53:09;;;;;;;0.00;0.00;;;;;;;;;;5033840;28;20200;-68
2022/05/14 04:55:40;;;;;;;0.00;0.00;;;;;;;;;;5029894;28;20192;-67
2022/05/14 04:58:08;;;;;;;0.00;0.00;;;;;;;;;;5030533;28;20269;-68
2022/05/14 05:00:36;;;;;;;0.00;0.00;;;;;;;;;;5034134;28;20247;-68
2022/05/14 05:03:17;;;;;;;0.00;0.00;;;;;;;;;;5030844;28;20214;-68
2022/05/14 05:05:47;;;;;;;0.10;0.10;;;;;;;;;;5064204;28;20207;-68
2022/05/14 05:08:14;;;;;;;0.00;0.00;;;;;;;;;;5062859;28;20206;-68
2022/05/14 05:10:43;;;;;;;0.00;0.00;;;;;;;;;;5031215;28;20227;-68
2022/05/14 05:13:11;;;;;;;0.00;0.00;;;;;;;;;;5062265;28;20268;-67
2022/05/14 05:15:38;;;;;;;0.00;0.00;;;;;;;;;;5031927;28;20200;-68
2022/05/14 05:18:06;;;;;;;0.00;0.00;;;;;;;;;;5029866;28;20207;-68
2022/05/14 05:20:35;;;;;;;0.00;0.00;;;;;;;;;;5032972;28;20230;-68
2022/05/14 05:23:02;;;;;;;0.00;0.00;;;;;;;;;;5035091;28;20223;-67
2022/05/14 05:25:30;;;;;;;0.00;0.00;;;;;;;;;;5028498;28;20230;-68
2022/05/14 05:27:59;;;;;;;0.00;0.00;;;;;;;;;;5046346;28;20203;-68
2022/05/14 05:30:26;;;;;;;0.00;0.00;;;;;;;;;;5065534;28;20226;-68
2022/05/14 05:32:53;;;;;;;0.00;0.00;;;;;;;;;;5032039;28;20200;-69
2022/05/14 05:35:21;;;;;;;0.00;0.00;;;;;;;;;;5028191;28;20208;-69
2022/05/14 05:37:48;;;;;;;0.00;0.00;;;;;;;;;;5067118;28;20206;-68
2022/05/14 05:40:16;;;;;;;0.00;0.00;;;;;;;;;;5032563;28;20334;-68
2022/05/14 05:42:43;;;;;;;0.00;0.00;;;;;;;;;;5029524;28;20289;-69
2022/05/14 05:45:14;;;;;;;0.00;0.00;;;;;;;;;;5033002;28;20229;-69
2022/05/14 05:47:42;;;;;;;0.00;0.00;;;;;;;;;;5033711;28;20225;-68
2022/05/14 05:50:10;;;;;;;0.07;0.07;;;;;;;;;;5067082;28;20273;-67
2022/05/14 05:52:37;;;;;;;0.10;0.10;;;;;;;;;;5066094;28;20220;-68
2022/05/14 05:57:50;;;;;;;0.10;0.10;;;;;;;;;;5028926;28;20248;-68
2022/05/14 06:00:21;;;;;;;0.00;0.00;;;;;;;;;;5032210;28;20223;-67
2022/05/14 06:02:49;;;;;;;0.00;0.00;;;;;;;;;;5034198;28;20207;-68
2022/05/14 06:05:16;;;;;;;0.00;0.00;;;;;;;;;;5032267;28;20678;-68
2022/05/14 06:07:44;;;;;;;0.00;0.00;;;;;;;;;;5048465;28;20249;-68
2022/05/14 06:10:13;;;;;;;0.00;0.00;;;;;;;;;;5065330;28;20943;-67
2022/05/14 06:12:40;;;;;;;0.03;0.03;;;13.00;99.90;;;;;;5068887;28;20195;-68
2022/05/14 06:15:09;;;;;;;0.00;0.00;;;19.50;99.90;;;;;;5034569;28;20203;-67
2022/05/14 06:17:38;;;;;;;0.00;0.00;;;19.60;99.90;;;;;;5034495;28;20223;-68
2022/05/14 06:20:06;;;;;;;0.00;0.00;;;19.70;99.90;;;;;;5031989;28;20302;-68
2022/05/14 06:22:33;;;;;;;0.00;0.00;;;19.70;99.90;;;;;;5043718;28;20200;-67
2022/05/14 06:25:00;;;;;;;0.00;0.00;;;;;;;;;;5033157;28;20204;-68
2022/05/14 06:27:27;;;;;;;0.00;0.00;;;;;;;;;;5032620;28;20753;-68
2022/05/14 06:29:54;;;;;;;0.00;0.00;;;19.80;99.90;;;;;;5035597;28;20225;-68
2022/05/14 06:32:21;;;;;;;0.00;0.00;;;20.20;99.90;;;;;;5052511;28;20261;-68
2022/05/14 06:34:50;;;;;;;0.00;0.00;;;20.30;99.90;;;;;;5038124;28;20231;-67
2022/05/14 06:37:17;;;;;;;0.00;0.00;;;20.50;99.90;;;;;;5033507;28;20204;-68
2022/05/14 06:39:45;;;;;;;0.00;0.00;;;;;;;;;;5033609;28;20303;-66
2022/05/14 06:42:13;;;;;;;0.00;0.00;;;20.70;99.90;;;;;;5045779;28;20214;-68
2022/05/14 06:44:40;;;;;;;0.00;0.00;;;20.70;99.90;;;;;;5036006;28;20220;-68
2022/05/14 06:47:08;;;;;;;0.00;0.00;;;;;;;;;;5066892;28;20231;-68
2022/05/14 06:49:35;;;;;;;0.00;0.00;;;;;;;;;;5042195;28;20311;-67
2022/05/14 06:52:05;;;;;;;0.00;0.00;;;;;;;;;;5069231;28;20668;-69
2022/05/14 06:54:36;;;;;;;0.00;0.00;;;21.30;99.90;;;;;;5032901;28;20214;-68
2022/05/14 06:57:03;;;;;;;0.00;0.00;;;21.40;99.90;;;;;;5031212;28;20211;-69
2022/05/14 06:59:32;;;;;;;0.00;0.00;;;21.40;99.90;;;;;;5035537;28;20345;-68
2022/05/14 07:02:00;;;;;;;0.00;0.00;;;21.60;99.90;;;;;;5035838;28;20196;-68
2022/05/14 07:07:17;;;;;;;0.00;0.00;;;22.00;99.90;;;;;;5049800;28;20227;-69
2022/05/14 07:09:44;;;;;;;0.00;0.00;;;22.10;99.90;;;;;;5037300;28;20743;-68
2022/05/14 07:12:12;;;;;;;0.00;0.00;;;22.10;99.90;;;;;;5042991;28;20202;-69
2022/05/14 07:14:41;;;;;;;0.00;0.00;;;22.20;99.90;;;;;;5035928;28;20692;-68
2022/05/14 07:17:11;;;;;;;0.00;0.00;;;22.30;99.90;;;;;;5036033;28;20191;-68
2022/05/14 07:19:38;;;;;;;0.00;0.00;;;22.40;99.90;;;;;;5030258;28;20377;-68
2022/05/14 07:22:06;;;;;;;0.00;0.00;;;22.50;99.90;;;;;;5067442;28;20206;-68
2022/05/14 07:24:34;;;;;;;0.00;0.00;;;22.60;99.90;;;;;;5031843;28;20688;-70
2022/05/14 07:27:10;;;;;;;0.00;0.00;;;22.60;99.90;;;;;;5034079;28;20326;-68
2022/05/14 07:29:37;;;;;;;0.00;0.00;;;;;;;;;;5032990;28;20238;-68
2022/05/14 07:32:05;;;;;;;0.00;0.00;;;;;;;;;;5040778;28;20709;-68
2022/05/14 07:34:32;;;;;;;0.00;0.00;;;;;;;;;;5037244;28;20225;-68
2022/05/14 07:37:01;;;;;;;0.00;0.00;;;;;;;;;;5032642;28;20196;-69
2022/05/14 07:39:31;;;;;;;0.00;0.00;;;;;;;;;;5066842;28;20342;-68
2022/05/14 07:42:02;;;;;;;0.00;0.00;;;;;;;;;;5033687;28;20191;-68
2022/05/14 07:44:31;;;;;;;0.00;0.00;;;;;;;;;;5046946;28;20283;-68
2022/05/14 07:47:01;;;;;;;0.00;0.00;;;;;;;;;;5058928;28;20227;-69
2022/05/14 07:49:28;;;;;;;0.00;0.00;;;;;;;;;;5036174;28;20220;-66
2022/05/14 07:51:56;;;;;;;0.00;0.00;;;;;;;;;;5046128;28;20214;-67
2022/05/14 07:54:24;;;;;;;0.00;0.00;;;;;;;;;;5026369;28;20206;-68
2022/05/14 07:56:51;;;;;;;0.00;0.00;;;;;;;;;;5028792;28;20188;-67
2022/05/14 07:59:20;;;;;;;0.00;0.00;;;;;;;;;;5031983;28;20307;-67
2022/05/14 08:01:47;;;;;;;0.00;0.00;;;;;;;;;;5029006;28;20211;-67
2022/05/14 08:04:14;;;;;;;0.00;0.00;;;23.70;99.90;;;;;;5066993;28;20576;-67
2022/05/14 08:06:41;;;;;;;0.00;0.00;;;23.70;99.90;;;;;;5040120;28;20219;-67
2022/05/14 08:09:08;;;;;;;0.00;0.00;;;23.60;99.90;;;;;;5031518;28;20772;-67
2022/05/14 08:11:35;;;;;;;0.00;0.00;;;23.40;99.90;;;;;;5035870;28;20203;-67
2022/05/14 08:14:01;;;;;;;0.00;0.00;;;23.20;99.90;;;;;;5033152;28;20288;-68
2022/05/14 08:16:30;;;;;;;0.00;0.00;;;23.00;99.90;;;;;;5035026;28;20218;-68
2022/05/14 08:18:58;;;;;;;0.00;0.00;;;22.90;99.90;;;;;;5035855;28;20223;-67
2022/05/14 08:26:54;;;;;;;0.00;0.00;;;22.60;99.90;;;;;;5031628;28;20262;-67
2022/05/14 08:29:23;;;;;;;0.00;0.00;;;22.50;99.90;;;;;;5031364;28;20241;-67
2022/05/14 08:31:51;;;;;;;0.00;0.00;;;22.50;99.90;;;;;;5031547;28;20191;-67
2022/05/14 08:34:18;;;;;;;0.00;0.00;;;22.80;99.90;;;;;;5029803;28;20218;-66
2022/05/14 08:36:45;;;;;;;0.00;0.00;;;22.70;99.90;;;;;;5032114;28;20305;-67
2022/05/14 08:39:13;;;;;;;0.00;0.00;;;22.80;99.90;;;;;;5046829;28;20652;-67
2022/05/14 08:41:43;;;;;;;0.00;0.00;;;22.90;99.90;;;;;;5038329;28;20199;-67
2022/05/14 08:44:15;;;;;;;0.00;0.00;;;22.90;99.90;;;;;;5028052;28;20302;-67
2022/05/14 08:46:45;;;;;;;0.00;0.00;;;23.00;99.90;;;;;;5030685;28;20215;-67
2022/05/14 08:49:18;;;;;;;0.00;0.00;;;23.10;99.90;;;;;;5031137;28;20251;-68
2022/05/14 08:51:51;;;;;;;0.00;0.00;;;23.00;99.90;;;;;;5040453;28;20207;-67
2022/05/14 08:54:19;;;;;;;0.00;0.00;;;23.00;99.90;;;;;;5034824;28;20195;-67
2022/05/14 08:56:51;;;;;;;0.00;0.00;;;22.90;99.90;;;;;;5033210;28;20209;-67
2022/05/14 08:59:54;;;;;;;0.00;0.00;;;22.60;99.90;;;;;;5030263;28;20227;-67
2022/05/14 09:02:24;;;;;;;0.00;0.00;;;22.50;99.90;;;;;;5027883;28;20209;-67
2022/05/14 09:05:00;;;;;;;0.00;0.00;;;22.50;99.90;;;;;;5065195;28;20206;-67
2022/05/14 09:07:27;;;;;;;0.00;0.00;;;22.40;99.90;;;;;;5026302;28;20302;-68
2022/05/14 09:09:56;;;;;;;0.00;0.00;;;22.30;99.90;;;;;;5029156;28;20215;-68
2022/05/14 09:12:27;;;;;;;0.00;0.00;;;22.30;99.90;;;;;;5036008;28;20200;-68
2022/05/14 09:14:57;;;;;;;0.00;0.00;;;22.20;99.90;;;;;;5049541;28;20311;-67
2022/05/14 09:17:28;;;;;;;0.00;0.00;;;22.20;99.90;;;;;;5032066;28;20278;-68
2022/05/14 09:19:58;;;;;;;0.00;0.00;;;22.20;99.90;;;;;;5046283;28;20321;-68
2022/05/14 09:22:37;;;;;;;0.00;0.00;;;22.20;99.90;;;;;;5027302;28;20271;-68
2022/05/14 09:25:16;;;;;;;0.00;0.00;;;22.30;99.90;;;;;;5029347;28;20223;-68
2022/05/14 09:27:46;;;;;;;0.00;0.00;;;22.40;99.90;;;;;;5028933;28;20203;-68
2022/05/14 09:30:24;;;;;;;0.00;0.00;;;22.40;99.90;;;;;;5045554;28;20251;-68
2022/05/14 09:32:52;;;;;;;0.00;0.00;;;22.50;99.90;;;;;;5027816;28;20265;-67
2022/05/14 09:35:22;;;;;;;0.00;0.00;;;22.40;99.90;;;;;;5029940;28;20203;-67
2022/05/14 09:37:49;;;;;;;0.00;0.00;;;22.40;99.90;;;;;;5046181;28;20206;-67
2022/05/14 09:40:24;;;;;;;0.00;0.00;;;22.60;99.90;;;;;;5028409;28;20235;-67
2022/05/14 09:42:53;;;;;;;0.00;0.00;;;22.80;99.90;;;;;;5028778;28;20197;-67
2022/05/14 09:45:24;;;;;;;0.00;0.00;;;22.80;99.90;;;;;;5048402;28;20306;-66
2022/05/14 09:47:52;;;;;;;0.00;0.00;;;22.80;99.90;;;;;;5033324;28;20230;-66
2022/05/14 09:50:24;;;;;;;0.00;0.00;;;22.70;99.90;;;;;;5030992;28;20228;-67
2022/05/14 09:52:59;;;;;;;0.00;0.00;;;22.70;99.90;;;;;;5063462;28;20214;-67
2022/05/14 09:55:39;;;;;;;0.00;0.00;;;22.90;99.90;;;;;;5062770;28;20224;-67
2022/05/14 09:58:15;;;;;;;0.00;0.00;;;23.20;99.90;;;;;;5045646;28;20227;-67
2022/05/14 10:00:55;;;;;;;0.00;0.00;;;23.40;99.90;;;;;;5030511;28;20214;-66
2022/05/14 10:03:40;;;;;;;0.00;0.00;;;23.40;99.90;;;;;;5031097;28;20286;-67
2022/05/14 10:06:19;;;;;;;0.00;0.00;;;23.40;99.90;;;;;;5028580;28;20239;-67
2022/05/14 10:09:06;;;;;;;0.00;0.00;;;23.40;99.90;;;;;;5032539;28;20223;-67
2022/05/14 10:11:36;;;;;;;0.00;0.00;;;23.40;99.90;;;;;;5029870;28;20203;-67
2022/05/14 10:14:25;;;;;;;0.00;0.00;;;23.50;99.90;;;;;;5034443;28;20216;-67
2022/05/14 10:17:05;;;;;;;0.00;0.00;;;23.40;99.90;;;;;;5066167;28;20223;-68
2022/05/14 10:19:52;;;;;;;0.00;0.00;;;23.40;99.90;;;;;;5036194;28;20231;-67
2022/05/14 10:22:27;;;;;;;0.00;0.00;;;23.50;99.90;;;;;;5036556;28;20192;-67
2022/05/14 10:28:10;;;;;;;0.00;0.00;;;23.80;99.90;;;;;;5033640;28;20219;-67
2022/05/14 10:30:48;;;;;;;0.00;0.00;;;23.50;99.90;;;;;;5036852;28;20226;-67
2022/05/14 10:33:19;;;;;;;0.00;0.00;;;23.40;99.90;;;;;;5033137;28;20316;-66
2022/05/14 10:35:55;;;;;;;0.00;0.00;;;23.40;99.90;;;;;;5050397;28;20199;-66
2022/05/14 10:38:26;;;;;;;0.00;0.00;;;23.50;99.90;;;;;;5050762;28;20742;-67
2022/05/14 10:40:57;;;;;;;0.00;0.00;;;23.80;99.90;;;;;;5035918;28;20195;-67
2022/05/14 10:43:33;;;;;;;0.00;0.00;;;24.00;99.90;;;;;;5035121;28;20254;-67
2022/05/14 10:46:08;;;;;;;0.00;0.00;;;23.90;99.90;;;;;;5034549;28;20199;-67
2022/05/14 10:48:44;;;;;;;0.00;0.00;;;24.00;99.90;;;;;;5033746;28;20237;-67
2022/05/14 10:51:14;;;;;;;0.00;0.00;;;23.90;99.90;;;;;;5035748;28;20186;-67
2022/05/14 10:53:44;;;;;;;0.00;0.00;;;24.10;99.90;;;;;;5036279;28;20210;-67
2022/05/14 10:56:15;;;;;;;0.00;0.00;;;24.10;99.90;;;;;;5037340;28;20204;-67
2022/05/14 10:58:54;;;;;;;0.00;0.00;;;24.20;99.90;;;;;;5055486;28;20732;-67
2022/05/14 11:01:35;;;;;;;0.00;0.00;;;24.30;99.90;;;;;;5040660;28;20199;-67
2022/05/14 11:04:16;;;;;;;0.00;0.00;;;24.50;99.90;;;;;;5038560;28;20203;-67
2022/05/14 11:06:58;;;;;;;0.00;0.00;;;24.30;99.90;;;;;;5039534;28;20191;-67
2022/05/14 11:09:41;;;;;;;0.00;0.00;;;24.00;99.90;;;;;;5040874;28;20278;-67
2022/05/14 11:12:13;;;;;;;0.00;0.00;;;24.00;99.90;;;;;;5071149;28;20219;-67
2022/05/14 11:14:43;;;;;;;0.00;0.00;;;24.10;99.90;;;;;;5038298;28;20295;-67
2022/05/14 11:17:20;;;;;;;0.00;0.00;;;24.10;99.90;;;;;;5036908;28;20306;-68
2022/05/14 11:19:47;;;;;;;0.00;0.00;;;24.20;99.90;;;;;;5044342;28;20219;-66
2022/05/14 11:22:30;;;;;;;0.00;0.00;;;24.40;99.90;;;;;;5045304;28;20274;-67
2022/05/14 11:25:12;;;;;;;0.00;0.00;;;24.40;99.90;;;;;;5036787;28;20195;-67
2022/05/14 11:27:41;;;;;;;0.00;0.00;;;24.30;99.90;;;;;;5037247;28;20268;-67
2022/05/14 11:30:12;;;;;;;0.00;0.00;;;24.30;99.90;;;;;;5040817;28;20238;-66
2022/05/14 11:32:46;;;;;;;0.00;0.00;;;24.20;99.90;;;;;;5041863;28;20203;-67
2022/05/14 11:35:15;;;;;;;0.00;0.00;;;24.10;99.90;;;;;;5032513;28;20260;-68
2022/05/14 11:37:45;;;;;;;0.00;0.00;;;24.10;99.90;;;;;;5066873;28;20224;-67
2022/05/14 11:40:27;;;;;;;0.00;0.00;;;24.20;99.90;;;;;;5040471;28;20767;-67
2022/05/14 11:43:21;;;;;;;0.00;0.00;;;24.20;99.90;;;;;;5029315;28;20199;-67
2022/05/14 11:45:57;;;;;;;0.00;0.00;;;24.20;99.90;;;;;;5046937;28;20223;-67
2022/05/14 11:48:30;;;;;;;0.00;0.00;;;24.40;99.90;;;;;;5031049;28;20230;-67
2022/05/14 11:51:06;;;;;;;0.00;0.00;;;24.70;99.90;;;;;;5035418;28;20219;-66
2022/05/14 11:53:39;;;;;;;0.00;0.00;;;24.60;99.90;;;;;;5032823;28;20191;-67
2022/05/14 11:56:14;;;;;;;0.00;0.00;;;24.50;99.90;;;;;;5030956;28;20207;-67
2022/05/14 11:58:46;;;;;;;0.00;0.00;;;24.50;99.90;;;;;;5031606;28;20296;-66
2022/05/14 12:01:17;;;;;;;0.00;0.00;;;24.70;99.90;;;;;;5033370;28;20744;-68
2022/05/14 12:03:46;;;;;;;0.00;0.00;;;24.80;99.90;;;;;;5040206;28;20199;-68
2022/05/14 12:06:30;;;;;;;0.00;0.00;;;24.80;99.90;;;;;;5029081;28;20208;-68
2022/05/14 12:09:05;;;;;;;0.00;0.00;;;24.90;99.90;;;;;;5032309;28;20281;-68
2022/05/14 12:11:40;;;;;;;0.00;0.00;;;24.80;99.90;;;;;;5040326;28;20233;-68
2022/05/14 12:14:15;;;;;;;0.00;0.00;;;24.60;99.90;;;;;;5047308;28;20211;-68
2022/05/14 12:16:50;;;;;;;0.00;0.00;;;24.50;99.90;;;;;;5051640;28;20286;-67
2022/05/14 12:19:19;;;;;;;0.00;0.00;;;24.50;99.90;;;;;;5047366;28;20229;-67
2022/05/14 12:21:52;;;;;;;0.37;0.00;;;24.30;99.90;;;;;;5033661;28;20207;-68
2022/05/14 12:24:22;;;;;;;0.00;0.00;;;24.20;99.90;;;;;;5041478;28;20200;-67
2022/05/14 12:26:50;;;;;;;0.00;0.00;;;24.20;99.90;;;;;;5032233;28;20632;-67
2022/05/14 12:29:22;;;;;;;0.00;0.00;;;24.10;99.90;;;;;;5032748;28;20309;-66
2022/05/14 12:34:43;;;;;;;0.00;0.00;;;23.80;99.90;;;;;;5028637;28;20299;-68
2022/05/14 12:37:19;;;;;;;0.00;0.00;;;23.60;99.90;;;;;;5033034;28;20304;-66
2022/05/14 12:39:50;;;;;;;0.00;0.00;;;23.50;99.90;;;;;;5031178;28;20306;-67
2022/05/14 12:42:28;;;;;;;0.00;0.00;;;23.60;99.90;;;;;;5054348;28;20215;-67
2022/05/14 12:44:56;;;;;;;0.00;0.00;;;23.60;99.90;;;;;;5042766;28;20202;-66
2022/05/14 12:47:24;;;;;;;0.00;0.00;;;23.60;99.90;;;;;;5039020;28;20198;-66
2022/05/14 12:49:52;;;;;;;0.00;0.00;;;23.70;99.90;;;;;;5042612;28;20223;-68
2022/05/14 12:52:21;;;;;;;0.00;0.00;;;23.70;99.90;;;;;;5039240;28;20291;-67
2022/05/14 12:54:51;;;;;;;0.00;0.00;;;23.60;99.90;;;;;;5042625;28;20207;-66
2022/05/14 12:57:19;;;;;;;0.00;0.00;;;23.40;99.90;;;;;;5043402;28;20715;-66
2022/05/14 12:59:48;;;;;;;0.00;0.00;;;23.40;99.90;;;;;;5039042;28;20254;-67
2022/05/14 13:02:20;;;;;;;0.00;0.00;;;23.40;99.90;;;;;;5041469;28;20564;-67
2022/05/14 13:04:53;;;;;;;0.00;0.00;;;23.50;99.90;;;;;;5042377;28;20214;-67
2022/05/14 13:07:20;;;;;;;0.00;0.00;;;23.60;99.90;;;;;;5041910;28;20206;-66
2022/05/14 13:09:48;;;;;;;0.00;0.00;;;23.60;99.90;;;;;;5039726;28;20232;-66
2022/05/14 13:12:18;;;;;;;0.00;0.00;;;23.60;99.90;;;;;;5041624;28;20325;-66
2022/05/14 13:14:53;;;;;;;0.00;0.00;;;23.70;99.90;;;;;;5043869;28;20204;-67
2022/05/14 13:17:22;;;;;;;0.00;0.00;;;23.70;99.90;;;;;;5041701;28;20570;-66
2022/05/14 13:19:55;;;;;;;0.00;0.00;;;23.60;99.90;;;;;;5039205;28;20215;-66
2022/05/14 13:22:32;;;;;;;0.00;0.00;;;23.60;99.90;;;;;;5042521;28;20207;-67
2022/05/14 13:25:01;;;;;;;0.00;0.00;;;23.50;99.90;;;;;;5043834;28;20306;-67
2022/05/14 13:27:32;;;;;;;0.00;0.00;;;23.50;99.90;;;;;;5042266;28;20210;-67
2022/05/14 13:30:11;;;;;;;0.00;0.00;;;23.50;99.90;;;;;;5042717;28;20215;-67
2022/05/14 13:32:39;;;;;;;0.00;0.00;;;23.40;99.90;;;;;;5036157;28;20202;-67
2022/05/14 13:37:58;;;;;;;0.00;0.00;;;23.20;99.90;;;;;;5039381;28;20286;-67
2022/05/14 13:40:29;;;;;;;0.00;0.00;;;23.10;99.90;;;;;;5042436;28;20250;-67
2022/05/14 13:43:00;;;;;;;0.00;0.00;;;22.90;99.90;;;;;;5039894;28;20257;-68
2022/05/14 13:45:33;;;;;;;0.00;0.00;;;22.90;99.90;;;;;;5042348;28;20199;-67
2022/05/14 13:48:05;;;;;;;0.00;0.00;;;22.70;99.90;;;;;;5038492;28;20862;-67
2022/05/14 13:50:35;;;;;;;0.00;0.00;;;22.70;99.90;;;;;;5038270;28;20264;-67
2022/05/14 13:53:04;;;;;;;0.00;0.00;;;22.70;99.90;;;;;;5037903;28;20291;-67
2022/05/14 13:55:35;;;;;;;0.00;0.00;;;22.60;99.90;;;;;;5041925;28;20203;-66